Terminal Aerodrome Forecast
Issued by NWS Midland/Odessa, TX

Home | Current Version | Previous Version | Text Only | Print | Product List | Glossary On
Versions: 1 2 3 4 5 6 7 8 9 10 11 12 13 14 15 16 17 18 19 20 21 22 23 24 25
000
FTUS44 KMAF 250500
TAFMAF
TAF
KMAF 250525Z 2506/2606 19008KT P6SM BKN200
     FM251400 19014KT P6SM SCT180
     FM260000 16014KT P6SM BKN180=

USA.gov is the U.S. government's official web portal to all federal, state and local government web resources and services.